sensor_id;sensor_type;location;lat;lon;timestamp;P1;durP1;ratioP1;P2;durP2;ratioP2
31674;SDS011;18276;45.520;11.018;2022-11-15T00:01:27;6.57;;;4.53;;
31674;SDS011;18276;45.520;11.018;2022-11-15T00:04:12;12.45;;;4.97;;
31674;SDS011;18276;45.520;11.018;2022-11-15T00:06:58;6.32;;;4.57;;
31674;SDS011;18276;45.520;11.018;2022-11-15T00:09:43;9.93;;;4.63;;
31674;SDS011;18276;45.520;11.018;2022-11-15T00:12:30;11.82;;;5.07;;
31674;SDS011;18276;45.520;11.018;2022-11-15T00:15:15;6.38;;;4.40;;
31674;SDS011;18276;45.520;11.018;2022-11-15T00:18:02;6.45;;;4.30;;
31674;SDS011;18276;45.520;11.018;2022-11-15T00:20:48;7.32;;;5.22;;
31674;SDS011;18276;45.520;11.018;2022-11-15T00:23:34;8.77;;;5.18;;
31674;SDS011;18276;45.520;11.018;2022-11-15T00:26:19;7.47;;;5.28;;
31674;SDS011;18276;45.520;11.018;2022-11-15T00:29:04;11.10;;;6.28;;
31674;SDS011;18276;45.520;11.018;2022-11-15T00:31:50;8.27;;;5.60;;
31674;SDS011;18276;45.520;11.018;2022-11-15T00:34:36;7.57;;;5.47;;
31674;SDS011;18276;45.520;11.018;2022-11-15T00:37:22;15.90;;;5.97;;
31674;SDS011;18276;45.520;11.018;2022-11-15T00:40:10;18.15;;;6.13;;
31674;SDS011;18276;45.520;11.018;2022-11-15T00:42:57;22.15;;;6.82;;
31674;SDS011;18276;45.520;11.018;2022-11-15T00:45:43;8.65;;;4.60;;
31674;SDS011;18276;45.520;11.018;2022-11-15T00:48:29;9.05;;;5.30;;
31674;SDS011;18276;45.520;11.018;2022-11-15T00:51:14;10.98;;;4.68;;
31674;SDS011;18276;45.520;11.018;2022-11-15T00:54:00;12.25;;;4.93;;
31674;SDS011;18276;45.520;11.018;2022-11-15T00:56:45;11.52;;;4.40;;
31674;SDS011;18276;45.520;11.018;2022-11-15T00:59:31;6.82;;;4.53;;
31674;SDS011;18276;45.520;11.018;2022-11-15T01:02:16;8.85;;;5.10;;
31674;SDS011;18276;45.520;11.018;2022-11-15T01:05:02;9.65;;;5.22;;
31674;SDS011;18276;45.520;11.018;2022-11-15T01:07:54;9.88;;;4.80;;
31674;SDS011;18276;45.520;11.018;2022-11-15T01:10:40;7.68;;;4.18;;
31674;SDS011;18276;45.520;11.018;2022-11-15T01:13:26;9.60;;;4.78;;
31674;SDS011;18276;45.520;11.018;2022-11-15T01:16:15;10.18;;;4.65;;
31674;SDS011;18276;45.520;11.018;2022-11-15T01:19:04;6.78;;;4.18;;
31674;SDS011;18276;45.520;11.018;2022-11-15T01:21:50;10.73;;;4.55;;
31674;SDS011;18276;45.520;11.018;2022-11-15T01:24:36;7.35;;;4.07;;
31674;SDS011;18276;45.520;11.018;2022-11-15T01:27:21;7.78;;;4.45;;
31674;SDS011;18276;45.520;11.018;2022-11-15T01:30:07;10.95;;;5.57;;
31674;SDS011;18276;45.520;11.018;2022-11-15T01:32:53;9.15;;;4.15;;
31674;SDS011;18276;45.520;11.018;2022-11-15T01:35:39;5.60;;;4.05;;
31674;SDS011;18276;45.520;11.018;2022-11-15T01:38:24;5.25;;;4.07;;
31674;SDS011;18276;45.520;11.018;2022-11-15T01:41:17;9.05;;;5.07;;
31674;SDS011;18276;45.520;11.018;2022-11-15T01:47:30;5.10;;;3.67;;
31674;SDS011;18276;45.520;11.018;2022-11-15T01:50:19;10.43;;;3.40;;
31674;SDS011;18276;45.520;11.018;2022-11-15T01:53:09;5.55;;;3.60;;
31674;SDS011;18276;45.520;11.018;2022-11-15T01:55:55;6.88;;;3.78;;
31674;SDS011;18276;45.520;11.018;2022-11-15T01:58:42;5.85;;;3.80;;
31674;SDS011;18276;45.520;11.018;2022-11-15T02:01:30;7.80;;;4.22;;
31674;SDS011;18276;45.520;11.018;2022-11-15T02:04:20;5.93;;;3.70;;
31674;SDS011;18276;45.520;11.018;2022-11-15T02:07:13;7.03;;;4.07;;
31674;SDS011;18276;45.520;11.018;2022-11-15T02:10:07;5.10;;;3.90;;
31674;SDS011;18276;45.520;11.018;2022-11-15T02:12:55;5.82;;;4.00;;
31674;SDS011;18276;45.520;11.018;2022-11-15T02:25:28;8.27;;;4.00;;
31674;SDS011;18276;45.520;11.018;2022-11-15T02:31:51;6.97;;;4.03;;
31674;SDS011;18276;45.520;11.018;2022-11-15T02:43:56;10.13;;;4.00;;
31674;SDS011;18276;45.520;11.018;2022-11-15T02:46:52;12.07;;;4.30;;
31674;SDS011;18276;45.520;11.018;2022-11-15T02:50:01;7.13;;;4.28;;
31674;SDS011;18276;45.520;11.018;2022-11-15T02:55:46;7.22;;;4.50;;
31674;SDS011;18276;45.520;11.018;2022-11-15T03:04:44;18.38;;;6.10;;
31674;SDS011;18276;45.520;11.018;2022-11-15T03:08:05;15.27;;;4.80;;
31674;SDS011;18276;45.520;11.018;2022-11-15T03:11:13;9.68;;;4.70;;
31674;SDS011;18276;45.520;11.018;2022-11-15T03:20:12;7.13;;;4.20;;
31674;SDS011;18276;45.520;11.018;2022-11-15T03:23:03;6.63;;;3.78;;
31674;SDS011;18276;45.520;11.018;2022-11-15T03:25:51;7.97;;;3.67;;
31674;SDS011;18276;45.520;11.018;2022-11-15T03:29:13;6.05;;;3.00;;
31674;SDS011;18276;45.520;11.018;2022-11-15T03:31:56;10.30;;;4.20;;
31674;SDS011;18276;45.520;11.018;2022-11-15T03:34:47;9.25;;;4.13;;
31674;SDS011;18276;45.520;11.018;2022-11-15T03:38:05;7.88;;;4.78;;
31674;SDS011;18276;45.520;11.018;2022-11-15T03:41:05;9.40;;;4.05;;
31674;SDS011;18276;45.520;11.018;2022-11-15T03:44:10;16.58;;;4.82;;
31674;SDS011;18276;45.520;11.018;2022-11-15T03:47:21;11.60;;;4.20;;
31674;SDS011;18276;45.520;11.018;2022-11-15T03:50:12;10.43;;;4.50;;
31674;SDS011;18276;45.520;11.018;2022-11-15T03:53:01;8.77;;;4.57;;
31674;SDS011;18276;45.520;11.018;2022-11-15T03:55:47;6.32;;;4.03;;
31674;SDS011;18276;45.520;11.018;2022-11-15T03:58:32;8.48;;;4.03;;
31674;SDS011;18276;45.520;11.018;2022-11-15T04:01:18;7.57;;;3.95;;
31674;SDS011;18276;45.520;11.018;2022-11-15T04:04:03;8.57;;;3.90;;
31674;SDS011;18276;45.520;11.018;2022-11-15T04:06:49;5.95;;;3.90;;
31674;SDS011;18276;45.520;11.018;2022-11-15T04:09:35;8.43;;;3.65;;
31674;SDS011;18276;45.520;11.018;2022-11-15T04:12:41;5.38;;;3.80;;
31674;SDS011;18276;45.520;11.018;2022-11-15T04:15:28;6.28;;;3.47;;
31674;SDS011;18276;45.520;11.018;2022-11-15T04:18:14;7.25;;;3.58;;
31674;SDS011;18276;45.520;11.018;2022-11-15T04:20:59;6.55;;;3.63;;
31674;SDS011;18276;45.520;11.018;2022-11-15T04:24:03;7.70;;;3.78;;
31674;SDS011;18276;45.520;11.018;2022-11-15T04:26:52;9.18;;;3.65;;
31674;SDS011;18276;45.520;11.018;2022-11-15T04:29:38;5.97;;;3.60;;
31674;SDS011;18276;45.520;11.018;2022-11-15T04:32:23;7.20;;;3.50;;
31674;SDS011;18276;45.520;11.018;2022-11-15T04:35:09;5.40;;;3.22;;
31674;SDS011;18276;45.520;11.018;2022-11-15T04:37:55;9.27;;;4.43;;
31674;SDS011;18276;45.520;11.018;2022-11-15T04:40:48;5.88;;;3.28;;
31674;SDS011;18276;45.520;11.018;2022-11-15T04:43:37;6.90;;;3.40;;
31674;SDS011;18276;45.520;11.018;2022-11-15T04:46:23;4.85;;;3.40;;
31674;SDS011;18276;45.520;11.018;2022-11-15T04:49:10;5.35;;;3.17;;
31674;SDS011;18276;45.520;11.018;2022-11-15T04:51:55;5.70;;;3.50;;
31674;SDS011;18276;45.520;11.018;2022-11-15T04:54:41;6.30;;;3.25;;
31674;SDS011;18276;45.520;11.018;2022-11-15T04:57:27;5.15;;;3.67;;
31674;SDS011;18276;45.520;11.018;2022-11-15T05:00:14;7.32;;;3.92;;
31674;SDS011;18276;45.520;11.018;2022-11-15T05:03:01;7.68;;;4.20;;
31674;SDS011;18276;45.520;11.018;2022-11-15T05:06:05;12.10;;;5.35;;
31674;SDS011;18276;45.520;11.018;2022-11-15T05:08:51;6.65;;;4.18;;
31674;SDS011;18276;45.520;11.018;2022-11-15T05:11:36;9.10;;;4.10;;
31674;SDS011;18276;45.520;11.018;2022-11-15T05:14:22;6.88;;;4.30;;
31674;SDS011;18276;45.520;11.018;2022-11-15T05:17:07;6.00;;;4.65;;
31674;SDS011;18276;45.520;11.018;2022-11-15T05:19:53;9.82;;;5.35;;
31674;SDS011;18276;45.520;11.018;2022-11-15T05:22:39;16.58;;;6.68;;
31674;SDS011;18276;45.520;11.018;2022-11-15T05:25:27;11.30;;;6.75;;
31674;SDS011;18276;45.520;11.018;2022-11-15T05:28:13;17.23;;;7.90;;
31674;SDS011;18276;45.520;11.018;2022-11-15T05:31:03;14.73;;;7.07;;
31674;SDS011;18276;45.520;11.018;2022-11-15T05:33:50;11.77;;;7.32;;
31674;SDS011;18276;45.520;11.018;2022-11-15T05:36:37;11.38;;;7.57;;
31674;SDS011;18276;45.520;11.018;2022-11-15T05:39:27;14.05;;;7.13;;
31674;SDS011;18276;45.520;11.018;2022-11-15T05:42:13;13.48;;;7.82;;
31674;SDS011;18276;45.520;11.018;2022-11-15T05:45:00;12.60;;;7.53;;
31674;SDS011;18276;45.520;11.018;2022-11-15T05:47:48;12.57;;;7.03;;
31674;SDS011;18276;45.520;11.018;2022-11-15T05:50:36;14.70;;;7.10;;
31674;SDS011;18276;45.520;11.018;2022-11-15T05:53:23;14.85;;;7.57;;
31674;SDS011;18276;45.520;11.018;2022-11-15T05:56:10;11.63;;;7.13;;
31674;SDS011;18276;45.520;11.018;2022-11-15T05:58:57;15.93;;;7.68;;
31674;SDS011;18276;45.520;11.018;2022-11-15T06:01:44;13.70;;;6.82;;
31674;SDS011;18276;45.520;11.018;2022-11-15T06:04:30;14.63;;;6.38;;
31674;SDS011;18276;45.520;11.018;2022-11-15T06:07:16;15.07;;;6.80;;
31674;SDS011;18276;45.520;11.018;2022-11-15T06:10:01;12.07;;;5.93;;
31674;SDS011;18276;45.520;11.018;2022-11-15T06:12:55;13.15;;;5.38;;
31674;SDS011;18276;45.520;11.018;2022-11-15T06:15:43;20.70;;;6.93;;
31674;SDS011;18276;45.520;11.018;2022-11-15T06:18:31;12.63;;;4.95;;
31674;SDS011;18276;45.520;11.018;2022-11-15T06:21:18;16.48;;;5.57;;
31674;SDS011;18276;45.520;11.018;2022-11-15T06:24:04;23.98;;;6.88;;
31674;SDS011;18276;45.520;11.018;2022-11-15T06:26:50;11.68;;;5.88;;
31674;SDS011;18276;45.520;11.018;2022-11-15T06:29:36;14.48;;;5.57;;
31674;SDS011;18276;45.520;11.018;2022-11-15T06:32:21;9.55;;;4.97;;
31674;SDS011;18276;45.520;11.018;2022-11-15T06:35:07;12.70;;;6.45;;
31674;SDS011;18276;45.520;11.018;2022-11-15T06:37:52;12.80;;;6.45;;
31674;SDS011;18276;45.520;11.018;2022-11-15T06:40:38;12.70;;;7.30;;
31674;SDS011;18276;45.520;11.018;2022-11-15T06:43:24;24.50;;;9.63;;
31674;SDS011;18276;45.520;11.018;2022-11-15T06:46:09;19.65;;;9.85;;
31674;SDS011;18276;45.520;11.018;2022-11-15T06:48:55;44.17;;;13.65;;
31674;SDS011;18276;45.520;11.018;2022-11-15T06:51:41;561.55;;;40.30;;
31674;SDS011;18276;45.520;11.018;2022-11-15T06:54:26;272.85;;;28.33;;
31674;SDS011;18276;45.520;11.018;2022-11-15T06:57:12;130.32;;;21.92;;
31674;SDS011;18276;45.520;11.018;2022-11-15T06:59:57;53.88;;;16.50;;
31674;SDS011;18276;45.520;11.018;2022-11-15T07:02:43;29.30;;;14.13;;
31674;SDS011;18276;45.520;11.018;2022-11-15T07:05:29;27.17;;;13.05;;
31674;SDS011;18276;45.520;11.018;2022-11-15T07:08:14;22.65;;;12.18;;
31674;SDS011;18276;45.520;11.018;2022-11-15T07:11:01;24.40;;;11.50;;
31674;SDS011;18276;45.520;11.018;2022-11-15T07:13:48;20.38;;;10.40;;
31674;SDS011;18276;45.520;11.018;2022-11-15T07:16:33;19.73;;;10.88;;
31674;SDS011;18276;45.520;11.018;2022-11-15T07:19:19;17.40;;;9.80;;
31674;SDS011;18276;45.520;11.018;2022-11-15T07:22:04;19.73;;;10.65;;
31674;SDS011;18276;45.520;11.018;2022-11-15T07:24:50;21.35;;;8.98;;
31674;SDS011;18276;45.520;11.018;2022-11-15T07:27:35;19.80;;;9.95;;
31674;SDS011;18276;45.520;11.018;2022-11-15T07:30:21;27.00;;;10.00;;
31674;SDS011;18276;45.520;11.018;2022-11-15T07:33:07;22.25;;;9.43;;
31674;SDS011;18276;45.520;11.018;2022-11-15T07:35:53;18.15;;;8.20;;
31674;SDS011;18276;45.520;11.018;2022-11-15T07:38:38;22.15;;;9.88;;
31674;SDS011;18276;45.520;11.018;2022-11-15T07:41:27;21.70;;;10.00;;
31674;SDS011;18276;45.520;11.018;2022-11-15T07:44:14;16.55;;;8.60;;
31674;SDS011;18276;45.520;11.018;2022-11-15T07:46:59;28.10;;;8.18;;
31674;SDS011;18276;45.520;11.018;2022-11-15T07:49:45;14.18;;;7.20;;
31674;SDS011;18276;45.520;11.018;2022-11-15T07:52:30;15.75;;;7.30;;
31674;SDS011;18276;45.520;11.018;2022-11-15T07:55:16;16.98;;;6.63;;
31674;SDS011;18276;45.520;11.018;2022-11-15T07:58:02;20.70;;;7.05;;
31674;SDS011;18276;45.520;11.018;2022-11-15T08:00:49;23.33;;;7.38;;
31674;SDS011;18276;45.520;11.018;2022-11-15T08:03:35;14.50;;;7.45;;
31674;SDS011;18276;45.520;11.018;2022-11-15T08:06:21;21.58;;;6.88;;
31674;SDS011;18276;45.520;11.018;2022-11-15T08:09:07;22.40;;;7.20;;
31674;SDS011;18276;45.520;11.018;2022-11-15T08:11:52;21.85;;;6.85;;
31674;SDS011;18276;45.520;11.018;2022-11-15T08:14:38;31.40;;;8.10;;
31674;SDS011;18276;45.520;11.018;2022-11-15T08:17:24;29.15;;;8.68;;
31674;SDS011;18276;45.520;11.018;2022-11-15T08:20:10;21.50;;;6.22;;
31674;SDS011;18276;45.520;11.018;2022-11-15T08:22:56;23.05;;;7.22;;
31674;SDS011;18276;45.520;11.018;2022-11-15T08:25:42;24.42;;;7.53;;
31674;SDS011;18276;45.520;11.018;2022-11-15T08:28:27;27.33;;;7.65;;
31674;SDS011;18276;45.520;11.018;2022-11-15T08:31:17;21.27;;;8.85;;
31674;SDS011;18276;45.520;11.018;2022-11-15T08:34:03;27.35;;;9.90;;
31674;SDS011;18276;45.520;11.018;2022-11-15T08:36:49;25.63;;;7.82;;
31674;SDS011;18276;45.520;11.018;2022-11-15T08:39:35;22.17;;;8.27;;
31674;SDS011;18276;45.520;11.018;2022-11-15T08:42:20;20.55;;;8.18;;
31674;SDS011;18276;45.520;11.018;2022-11-15T08:45:06;20.33;;;10.27;;
31674;SDS011;18276;45.520;11.018;2022-11-15T08:47:53;25.40;;;11.40;;
31674;SDS011;18276;45.520;11.018;2022-11-15T08:50:38;23.80;;;12.55;;
31674;SDS011;18276;45.520;11.018;2022-11-15T08:53:24;25.83;;;12.88;;
31674;SDS011;18276;45.520;11.018;2022-11-15T08:56:10;29.55;;;13.82;;
31674;SDS011;18276;45.520;11.018;2022-11-15T08:58:57;27.40;;;13.90;;
31674;SDS011;18276;45.520;11.018;2022-11-15T09:01:43;25.73;;;12.68;;
31674;SDS011;18276;45.520;11.018;2022-11-15T09:04:28;24.35;;;14.90;;
31674;SDS011;18276;45.520;11.018;2022-11-15T09:07:14;24.38;;;13.15;;
31674;SDS011;18276;45.520;11.018;2022-11-15T09:10:00;32.05;;;15.75;;
31674;SDS011;18276;45.520;11.018;2022-11-15T09:12:46;25.88;;;15.35;;
31674;SDS011;18276;45.520;11.018;2022-11-15T09:15:33;26.67;;;15.23;;
31674;SDS011;18276;45.520;11.018;2022-11-15T09:18:18;32.78;;;15.48;;
31674;SDS011;18276;45.520;11.018;2022-11-15T09:21:07;28.55;;;15.27;;
31674;SDS011;18276;45.520;11.018;2022-11-15T09:23:53;30.83;;;17.25;;
31674;SDS011;18276;45.520;11.018;2022-11-15T09:26:38;36.53;;;19.25;;
31674;SDS011;18276;45.520;11.018;2022-11-15T09:29:24;33.38;;;18.58;;
31674;SDS011;18276;45.520;11.018;2022-11-15T09:32:10;36.28;;;19.80;;
31674;SDS011;18276;45.520;11.018;2022-11-15T09:34:55;36.90;;;20.08;;
31674;SDS011;18276;45.520;11.018;2022-11-15T09:37:42;46.55;;;23.63;;
31674;SDS011;18276;45.520;11.018;2022-11-15T09:40:29;57.70;;;29.08;;
31674;SDS011;18276;45.520;11.018;2022-11-15T09:43:32;53.55;;;25.85;;
31674;SDS011;18276;45.520;11.018;2022-11-15T09:49:58;66.97;;;32.75;;
31674;SDS011;18276;45.520;11.018;2022-11-15T09:52:32;64.25;;;33.08;;
31674;SDS011;18276;45.520;11.018;2022-11-15T09:55:01;61.20;;;32.85;;
31674;SDS011;18276;45.520;11.018;2022-11-15T10:03:10;56.45;;;28.33;;
31674;SDS011;18276;45.520;11.018;2022-11-15T10:05:39;56.05;;;29.25;;
31674;SDS011;18276;45.520;11.018;2022-11-15T10:11:06;47.38;;;23.63;;
31674;SDS011;18276;45.520;11.018;2022-11-15T10:13:58;46.00;;;24.10;;
31674;SDS011;18276;45.520;11.018;2022-11-15T10:19:05;46.50;;;26.00;;
31674;SDS011;18276;45.520;11.018;2022-11-15T10:22:39;44.55;;;23.50;;
31674;SDS011;18276;45.520;11.018;2022-11-15T10:27:51;43.97;;;24.52;;
31674;SDS011;18276;45.520;11.018;2022-11-15T10:30:20;44.10;;;24.20;;
31674;SDS011;18276;45.520;11.018;2022-11-15T10:32:48;47.65;;;23.67;;
31674;SDS011;18276;45.520;11.018;2022-11-15T10:35:24;38.17;;;21.13;;
31674;SDS011;18276;45.520;11.018;2022-11-15T10:38:13;38.22;;;20.80;;
31674;SDS011;18276;45.520;11.018;2022-11-15T10:40:40;37.72;;;20.52;;
31674;SDS011;18276;45.520;11.018;2022-11-15T10:45:37;22.77;;;13.48;;
31674;SDS011;18276;45.520;11.018;2022-11-15T10:50:41;21.63;;;13.00;;
31674;SDS011;18276;45.520;11.018;2022-11-15T10:53:30;23.27;;;13.05;;
31674;SDS011;18276;45.520;11.018;2022-11-15T10:56:07;24.75;;;14.50;;
31674;SDS011;18276;45.520;11.018;2022-11-15T11:03:43;20.52;;;13.77;;
31674;SDS011;18276;45.520;11.018;2022-11-15T11:06:14;24.13;;;13.98;;
31674;SDS011;18276;45.520;11.018;2022-11-15T11:08:57;28.83;;;16.02;;
31674;SDS011;18276;45.520;11.018;2022-11-15T11:11:48;29.52;;;15.95;;
31674;SDS011;18276;45.520;11.018;2022-11-15T11:14:23;27.60;;;17.30;;
31674;SDS011;18276;45.520;11.018;2022-11-15T11:17:16;46.30;;;25.20;;
31674;SDS011;18276;45.520;11.018;2022-11-15T11:25:34;34.95;;;17.10;;
31674;SDS011;18276;45.520;11.018;2022-11-15T11:33:46;35.13;;;17.40;;
31674;SDS011;18276;45.520;11.018;2022-11-15T11:36:36;37.33;;;16.80;;
31674;SDS011;18276;45.520;11.018;2022-11-15T11:39:20;30.63;;;15.80;;
31674;SDS011;18276;45.520;11.018;2022-11-15T11:47:59;34.95;;;15.30;;
31674;SDS011;18276;45.520;11.018;2022-11-15T11:50:40;33.60;;;14.50;;
31674;SDS011;18276;45.520;11.018;2022-11-15T11:53:12;29.85;;;14.82;;
31674;SDS011;18276;45.520;11.018;2022-11-15T11:56:13;32.50;;;16.95;;
31674;SDS011;18276;45.520;11.018;2022-11-15T11:58:48;38.30;;;20.10;;
31674;SDS011;18276;45.520;11.018;2022-11-15T12:06:33;42.45;;;22.08;;
31674;SDS011;18276;45.520;11.018;2022-11-15T12:18:12;43.28;;;21.83;;
31674;SDS011;18276;45.520;11.018;2022-11-15T12:20:47;38.38;;;21.67;;
31674;SDS011;18276;45.520;11.018;2022-11-15T12:23:27;43.42;;;21.83;;
31674;SDS011;18276;45.520;11.018;2022-11-15T12:26:05;38.53;;;22.23;;
31674;SDS011;18276;45.520;11.018;2022-11-15T12:29:00;35.35;;;19.50;;
31674;SDS011;18276;45.520;11.018;2022-11-15T12:34:02;38.47;;;20.55;;
31674;SDS011;18276;45.520;11.018;2022-11-15T12:40:03;32.85;;;19.52;;
31674;SDS011;18276;45.520;11.018;2022-11-15T12:42:42;36.53;;;18.25;;
31674;SDS011;18276;45.520;11.018;2022-11-15T12:48:44;30.23;;;15.13;;
31674;SDS011;18276;45.520;11.018;2022-11-15T12:58:53;23.63;;;14.27;;
31674;SDS011;18276;45.520;11.018;2022-11-15T13:06:49;25.58;;;14.38;;
31674;SDS011;18276;45.520;11.018;2022-11-15T13:10:01;25.95;;;14.45;;
31674;SDS011;18276;45.520;11.018;2022-11-15T13:17:25;37.10;;;21.00;;
31674;SDS011;18276;45.520;11.018;2022-11-15T13:28:19;39.30;;;18.52;;
31674;SDS011;18276;45.520;11.018;2022-11-15T13:33:17;36.95;;;19.08;;
31674;SDS011;18276;45.520;11.018;2022-11-15T13:35:46;40.22;;;21.35;;
31674;SDS011;18276;45.520;11.018;2022-11-15T13:38:25;34.05;;;19.67;;
31674;SDS011;18276;45.520;11.018;2022-11-15T13:40:58;34.83;;;18.27;;
31674;SDS011;18276;45.520;11.018;2022-11-15T13:43:36;33.92;;;17.20;;
31674;SDS011;18276;45.520;11.018;2022-11-15T13:46:04;37.00;;;18.45;;
31674;SDS011;18276;45.520;11.018;2022-11-15T13:48:45;37.20;;;19.02;;
31674;SDS011;18276;45.520;11.018;2022-11-15T13:54:01;41.67;;;19.17;;
31674;SDS011;18276;45.520;11.018;2022-11-15T13:56:43;34.92;;;19.77;;
31674;SDS011;18276;45.520;11.018;2022-11-15T14:00:05;35.20;;;17.73;;
31674;SDS011;18276;45.520;11.018;2022-11-15T14:02:38;33.47;;;18.77;;
31674;SDS011;18276;45.520;11.018;2022-11-15T14:05:14;31.33;;;17.67;;
31674;SDS011;18276;45.520;11.018;2022-11-15T14:08:00;31.30;;;16.95;;
31674;SDS011;18276;45.520;11.018;2022-11-15T14:11:15;42.08;;;22.38;;
31674;SDS011;18276;45.520;11.018;2022-11-15T14:19:49;41.90;;;21.98;;
31674;SDS011;18276;45.520;11.018;2022-11-15T14:22:21;45.42;;;23.85;;
31674;SDS011;18276;45.520;11.018;2022-11-15T14:30:43;35.53;;;21.15;;
31674;SDS011;18276;45.520;11.018;2022-11-15T14:33:21;38.92;;;23.92;;
31674;SDS011;18276;45.520;11.018;2022-11-15T14:35:51;38.97;;;18.75;;
31674;SDS011;18276;45.520;11.018;2022-11-15T14:38:19;34.53;;;19.13;;
31674;SDS011;18276;45.520;11.018;2022-11-15T14:40:46;36.78;;;20.02;;
31674;SDS011;18276;45.520;11.018;2022-11-15T14:43:13;36.50;;;18.92;;
31674;SDS011;18276;45.520;11.018;2022-11-15T14:45:41;33.85;;;20.10;;
31674;SDS011;18276;45.520;11.018;2022-11-15T14:48:08;39.00;;;21.20;;
31674;SDS011;18276;45.520;11.018;2022-11-15T14:50:36;40.80;;;22.77;;
31674;SDS011;18276;45.520;11.018;2022-11-15T14:53:03;40.00;;;22.02;;
31674;SDS011;18276;45.520;11.018;2022-11-15T14:55:34;39.90;;;21.92;;
31674;SDS011;18276;45.520;11.018;2022-11-15T14:58:03;50.88;;;24.35;;
31674;SDS011;18276;45.520;11.018;2022-11-15T15:00:31;40.95;;;22.23;;
31674;SDS011;18276;45.520;11.018;2022-11-15T15:03:01;41.85;;;23.00;;
31674;SDS011;18276;45.520;11.018;2022-11-15T15:05:33;32.80;;;20.63;;
31674;SDS011;18276;45.520;11.018;2022-11-15T15:08:05;35.15;;;21.30;;
31674;SDS011;18276;45.520;11.018;2022-11-15T15:10:35;38.28;;;21.92;;
31674;SDS011;18276;45.520;11.018;2022-11-15T15:13:10;39.20;;;22.27;;
31674;SDS011;18276;45.520;11.018;2022-11-15T15:15:49;29.80;;;18.38;;
31674;SDS011;18276;45.520;11.018;2022-11-15T15:18:17;37.72;;;20.77;;
31674;SDS011;18276;45.520;11.018;2022-11-15T15:20:47;35.13;;;19.60;;
31674;SDS011;18276;45.520;11.018;2022-11-15T15:23:26;33.00;;;18.23;;
31674;SDS011;18276;45.520;11.018;2022-11-15T15:25:55;30.10;;;17.33;;
31674;SDS011;18276;45.520;11.018;2022-11-15T15:28:23;34.83;;;18.70;;
31674;SDS011;18276;45.520;11.018;2022-11-15T15:30:55;32.13;;;17.90;;
31674;SDS011;18276;45.520;11.018;2022-11-15T15:33:22;38.72;;;18.42;;
31674;SDS011;18276;45.520;11.018;2022-11-15T15:35:49;31.50;;;19.45;;
31674;SDS011;18276;45.520;11.018;2022-11-15T15:38:16;33.13;;;19.50;;
31674;SDS011;18276;45.520;11.018;2022-11-15T15:40:43;32.00;;;18.70;;
31674;SDS011;18276;45.520;11.018;2022-11-15T15:43:10;28.58;;;17.45;;
31674;SDS011;18276;45.520;11.018;2022-11-15T15:45:38;35.65;;;18.77;;
31674;SDS011;18276;45.520;11.018;2022-11-15T15:48:13;29.33;;;17.63;;
31674;SDS011;18276;45.520;11.018;2022-11-15T15:50:42;29.65;;;17.10;;
31674;SDS011;18276;45.520;11.018;2022-11-15T15:53:10;36.80;;;17.98;;
31674;SDS011;18276;45.520;11.018;2022-11-15T15:55:39;32.72;;;17.38;;
31674;SDS011;18276;45.520;11.018;2022-11-15T15:58:06;29.48;;;17.50;;
31674;SDS011;18276;45.520;11.018;2022-11-15T16:00:35;31.52;;;17.52;;
31674;SDS011;18276;45.520;11.018;2022-11-15T16:03:03;32.85;;;19.02;;
31674;SDS011;18276;45.520;11.018;2022-11-15T16:05:30;35.13;;;20.00;;
31674;SDS011;18276;45.520;11.018;2022-11-15T16:07:57;38.58;;;19.58;;
31674;SDS011;18276;45.520;11.018;2022-11-15T16:10:27;35.70;;;19.55;;
31674;SDS011;18276;45.520;11.018;2022-11-15T16:12:56;31.40;;;18.38;;
31674;SDS011;18276;45.520;11.018;2022-11-15T16:15:25;39.85;;;23.20;;
31674;SDS011;18276;45.520;11.018;2022-11-15T16:17:55;39.28;;;20.63;;
31674;SDS011;18276;45.520;11.018;2022-11-15T16:20:35;35.50;;;19.83;;
31674;SDS011;18276;45.520;11.018;2022-11-15T16:23:04;43.92;;;24.38;;
31674;SDS011;18276;45.520;11.018;2022-11-15T16:28:30;34.40;;;21.08;;
31674;SDS011;18276;45.520;11.018;2022-11-15T16:33:31;42.30;;;26.92;;
31674;SDS011;18276;45.520;11.018;2022-11-15T16:35:59;46.08;;;28.02;;
31674;SDS011;18276;45.520;11.018;2022-11-15T16:38:27;42.67;;;24.55;;
31674;SDS011;18276;45.520;11.018;2022-11-15T16:40:54;41.80;;;23.83;;
31674;SDS011;18276;45.520;11.018;2022-11-15T16:43:22;43.38;;;23.70;;
31674;SDS011;18276;45.520;11.018;2022-11-15T16:45:49;38.55;;;21.92;;
31674;SDS011;18276;45.520;11.018;2022-11-15T16:48:21;42.75;;;22.08;;
31674;SDS011;18276;45.520;11.018;2022-11-15T16:50:54;40.33;;;23.13;;
31674;SDS011;18276;45.520;11.018;2022-11-15T16:53:23;39.70;;;24.02;;
31674;SDS011;18276;45.520;11.018;2022-11-15T16:55:52;42.83;;;24.77;;
31674;SDS011;18276;45.520;11.018;2022-11-15T16:58:20;48.33;;;24.58;;
31674;SDS011;18276;45.520;11.018;2022-11-15T17:00:51;43.85;;;24.80;;
31674;SDS011;18276;45.520;11.018;2022-11-15T17:03:20;47.35;;;24.50;;
31674;SDS011;18276;45.520;11.018;2022-11-15T17:05:49;44.00;;;24.02;;
31674;SDS011;18276;45.520;11.018;2022-11-15T17:08:17;43.03;;;24.75;;
31674;SDS011;18276;45.520;11.018;2022-11-15T17:10:47;43.05;;;22.90;;
31674;SDS011;18276;45.520;11.018;2022-11-15T17:13:15;43.55;;;23.92;;
31674;SDS011;18276;45.520;11.018;2022-11-15T17:15:42;49.80;;;27.48;;
31674;SDS011;18276;45.520;11.018;2022-11-15T17:18:10;41.42;;;25.20;;
31674;SDS011;18276;45.520;11.018;2022-11-15T17:20:41;44.17;;;24.95;;
31674;SDS011;18276;45.520;11.018;2022-11-15T17:23:12;51.30;;;28.58;;
31674;SDS011;18276;45.520;11.018;2022-11-15T17:25:40;50.38;;;27.52;;
31674;SDS011;18276;45.520;11.018;2022-11-15T17:28:08;43.17;;;25.10;;
31674;SDS011;18276;45.520;11.018;2022-11-15T17:30:35;46.15;;;25.35;;
31674;SDS011;18276;45.520;11.018;2022-11-15T17:33:06;42.38;;;24.05;;
31674;SDS011;18276;45.520;11.018;2022-11-15T17:35:34;48.72;;;27.65;;
31674;SDS011;18276;45.520;11.018;2022-11-15T17:38:07;46.15;;;26.63;;
31674;SDS011;18276;45.520;11.018;2022-11-15T17:40:34;50.40;;;27.65;;
31674;SDS011;18276;45.520;11.018;2022-11-15T17:43:05;51.72;;;29.00;;
31674;SDS011;18276;45.520;11.018;2022-11-15T17:45:32;52.38;;;27.77;;
31674;SDS011;18276;45.520;11.018;2022-11-15T17:48:00;50.55;;;29.85;;
31674;SDS011;18276;45.520;11.018;2022-11-15T17:50:27;53.80;;;29.90;;
31674;SDS011;18276;45.520;11.018;2022-11-15T17:52:54;50.78;;;29.23;;
31674;SDS011;18276;45.520;11.018;2022-11-15T17:55:21;53.20;;;31.30;;
31674;SDS011;18276;45.520;11.018;2022-11-15T17:57:48;59.00;;;32.85;;
31674;SDS011;18276;45.520;11.018;2022-11-15T18:00:15;60.30;;;32.42;;
31674;SDS011;18276;45.520;11.018;2022-11-15T18:02:46;62.10;;;33.33;;
31674;SDS011;18276;45.520;11.018;2022-11-15T18:05:13;63.38;;;34.33;;
31674;SDS011;18276;45.520;11.018;2022-11-15T18:07:40;63.13;;;32.92;;
31674;SDS011;18276;45.520;11.018;2022-11-15T18:10:07;66.18;;;32.55;;
31674;SDS011;18276;45.520;11.018;2022-11-15T18:12:35;69.45;;;36.58;;
31674;SDS011;18276;45.520;11.018;2022-11-15T18:15:02;66.40;;;35.67;;
31674;SDS011;18276;45.520;11.018;2022-11-15T18:17:30;75.47;;;38.13;;
31674;SDS011;18276;45.520;11.018;2022-11-15T18:20:00;68.10;;;37.85;;